createdAt,value
2016-02-19T00:00:08.547Z,29.63
2016-02-19T00:01:08.533Z,30.88
2016-02-19T00:02:08.505Z,32.14
2016-02-19T00:03:08.492Z,32.42
2016-02-19T00:04:08.479Z,32.62
2016-02-19T00:05:08.466Z,32.04
2016-02-19T00:06:08.438Z,32.14
2016-02-19T00:07:08.424Z,32.71
2016-02-19T00:08:08.413Z,32.71
2016-02-19T00:09:08.399Z,31.26
2016-02-19T00:10:08.386Z,30.76
2016-02-19T00:11:08.357Z,32.12
2016-02-19T00:12:08.345Z,32.51
2016-02-19T00:13:08.332Z,32.7
2016-02-19T00:14:08.318Z,32.51
2016-02-19T00:15:08.306Z,33.09
2016-02-19T00:16:08.276Z,31.26
2016-02-19T00:17:08.279Z,31.15
2016-02-19T00:18:08.251Z,32.12
2016-02-19T00:19:08.239Z,32.89
2016-02-19T00:20:08.225Z,32.7
2016-02-19T00:21:08.212Z,32.21
2016-02-19T00:22:08.184Z,32.33
2016-02-19T00:23:08.170Z,32.52
2016-02-19T00:24:08.142Z,31.84
2016-02-19T00:25:08.145Z,31.07
2016-02-19T00:26:08.116Z,30.39
2016-02-19T00:27:08.104Z,31.07
2016-02-19T00:28:08.091Z,31.36
2016-02-19T00:29:08.061Z,31.84
2016-02-19T00:30:08.053Z,32.14
2016-02-19T00:31:08.040Z,31.67
2016-02-19T00:32:08.027Z,30.89
2016-02-19T00:33:07.999Z,31.18
2016-02-19T00:34:07.986Z,31.76
2016-02-19T00:35:07.972Z,30.51
2016-02-19T00:36:07.960Z,30.02
2016-02-19T00:37:07.947Z,30.51
2016-02-19T00:38:07.917Z,31.28
2016-02-19T00:39:07.906Z,31.09
2016-02-19T00:40:07.892Z,31.29
2016-02-19T00:41:07.880Z,31.2
2016-02-19T00:42:07.851Z,30.71
2016-02-19T00:43:07.853Z,28.58
2016-02-19T00:44:07.825Z,29.44
2016-02-19T00:45:07.812Z,31.1
2016-02-19T00:46:07.799Z,31.47
2016-02-19T00:47:07.786Z,31.68
2016-02-19T00:48:07.757Z,31.39
2016-02-19T00:49:07.745Z,31.97
2016-02-19T00:50:07.607Z,30.52
2016-02-19T00:51:07.719Z,31.2
2016-02-19T00:52:07.706Z,30.23
2016-02-19T00:53:07.677Z,30.13
2016-02-19T00:54:07.665Z,30.52
2016-02-19T00:55:07.668Z,30.69
2016-02-19T00:56:07.638Z,30.91
2016-02-19T00:57:07.626Z,30.91
2016-02-19T00:58:07.597Z,31.29
2016-02-19T00:59:07.584Z,31.1
2016-02-19T01:00:07.571Z,30.91
2016-02-19T01:01:07.559Z,29.84
2016-02-19T01:02:07.545Z,29.16
2016-02-19T01:03:07.626Z,30.04
2016-02-19T01:04:07.613Z,31.1
2016-02-19T01:05:07.490Z,31.49
2016-02-19T01:06:07.471Z,31.78
2016-02-19T01:07:07.474Z,32.24
2016-02-19T01:08:07.445Z,30.04
2016-02-19T01:09:07.448Z,29.63
2016-02-19T01:10:07.419Z,31.09
2016-02-19T01:11:07.234Z,32.06
2016-02-19T01:12:07.409Z,32.44
2016-02-19T01:13:07.381Z,32.42
2016-02-19T01:14:07.352Z,32.23
2016-02-19T01:15:07.354Z,32.23
2016-02-19T01:16:07.342Z,32.42
2016-02-19T01:17:07.329Z,31.74
2016-02-19T01:18:07.284Z,30.58
2016-02-19T01:19:07.272Z,31.16
2016-02-19T01:20:07.258Z,32.23
2016-02-19T01:21:07.230Z,32.62
2016-02-19T01:22:07.218Z,32.81
2016-02-19T01:23:07.204Z,32.62
2016-02-19T01:24:07.175Z,32.52
2016-02-19T01:25:07.179Z,33.29
2016-02-19T01:26:07.150Z,32.62
2016-02-19T01:27:07.137Z,31.07
2016-02-19T01:28:07.124Z,31.15
2016-02-19T01:29:07.095Z,32.02
2016-02-19T01:30:07.083Z,33.29
2016-02-19T01:31:07.086Z,32.62
2016-02-19T01:32:07.058Z,32.41
2016-02-19T01:33:07.044Z,32.41
2016-02-19T01:34:07.015Z,30.96
2016-02-19T01:35:07.002Z,31.05
2016-02-19T01:36:06.989Z,32.99
2016-02-19T01:37:06.976Z,32.7
2016-02-19T01:38:06.963Z,33.09
2016-02-19T01:39:06.935Z,32.41
2016-02-19T01:40:06.921Z,32.04
2016-02-19T01:41:06.910Z,32.33
2016-02-19T01:42:06.896Z,32.23
2016-02-19T01:43:06.882Z,30.78
2016-02-19T01:44:06.871Z,29.52
2016-02-19T01:45:06.842Z,30.49
2016-02-19T01:46:06.829Z,30.99
2016-02-19T01:47:06.816Z,32.14
2016-02-19T01:48:06.787Z,32.24
2016-02-19T01:49:06.774Z,32.06
2016-02-19T01:50:06.777Z,31.18
2016-02-19T01:51:06.748Z,31.47
2016-02-19T01:52:06.736Z,32.24
2016-02-19T01:53:06.707Z,30.21
2016-02-19T01:54:06.695Z,29.53
2016-02-19T01:55:06.681Z,31.18
2016-02-19T01:56:06.668Z,31.28
2016-02-19T01:57:06.639Z,31.18
2016-02-19T01:58:06.642Z,31.86
2016-02-19T01:59:06.613Z,32.06
2016-02-19T02:00:06.600Z,30.11
2016-02-19T02:01:06.588Z,29.15
2016-02-19T02:02:06.558Z,29.74
2016-02-19T02:03:06.561Z,30.81
2016-02-19T02:04:06.533Z,31.2
2016-02-19T02:05:06.521Z,31.2
2016-02-19T02:06:06.507Z,31.49
2016-02-19T02:07:06.494Z,31.2
2016-02-19T02:08:06.466Z,30.52
2016-02-19T02:09:06.469Z,31.49
2016-02-19T02:10:06.440Z,31.01
2016-02-19T02:11:06.427Z,28.97
2016-02-19T02:12:06.398Z,30.23
2016-02-19T02:13:06.386Z,31.18
2016-02-19T02:14:06.388Z,32.06
2016-02-19T02:15:06.359Z,31.01
2016-02-19T02:16:06.347Z,31.2
2016-02-19T02:17:06.318Z,30.04
2016-02-19T02:18:06.321Z,29.74
2016-02-19T02:19:06.309Z,29.84
2016-02-19T02:20:06.279Z,30.81
2016-02-19T02:21:06.267Z,30.81
2016-02-19T02:22:06.254Z,31.1
2016-02-19T02:23:06.226Z,31.87
2016-02-19T02:24:06.212Z,31.97
2016-02-19T02:25:06.214Z,31.01
2016-02-19T02:26:06.186Z,31.18
2016-02-19T02:27:06.173Z,30.11
2016-02-19T02:28:06.161Z,30.89
2016-02-19T02:29:06.132Z,31.47
2016-02-19T02:30:06.150Z,32.54
2016-02-19T02:31:06.105Z,32.54
2016-02-19T02:32:06.094Z,32.34
2016-02-19T02:33:06.064Z,32.14
2016-02-19T02:34:06.051Z,33.2
2016-02-19T02:35:06.055Z,32.42
2016-02-19T02:36:06.041Z,30.78
2016-02-19T02:37:06.044Z,31.26
2016-02-19T02:38:05.984Z,32.23
2016-02-19T02:39:05.971Z,33.01
2016-02-19T02:40:05.958Z,33.59
2016-02-19T02:41:05.945Z,32.42
2016-02-19T02:42:05.917Z,32.33
2016-02-19T02:43:05.963Z,30.49
2016-02-19T02:44:05.792Z,30.68
2016-02-19T02:45:05.864Z,32.23
2016-02-19T02:46:10.093Z,32.79
2016-02-19T02:47:05.846Z,32.89
2016-02-19T02:48:05.817Z,32.41
2016-02-19T02:49:05.836Z,33.28
2016-02-19T02:50:05.792Z,32.89
2016-02-19T02:51:05.779Z,32.31
2016-02-19T02:52:05.766Z,31.83
2016-02-19T02:53:05.737Z,31.73
2016-02-19T02:54:05.725Z,31.93
2016-02-19T02:55:05.728Z,32.41
2016-02-19T02:56:05.692Z,32.6
2016-02-19T02:57:05.664Z,32.41
2016-02-19T02:58:05.666Z,32.14
2016-02-19T02:59:05.872Z,32.33
2016-02-19T03:00:05.624Z,31.07
2016-02-19T03:01:05.612Z,31.84
2016-02-19T03:02:05.598Z,31.67
2016-02-19T03:03:05.570Z,30.02
2016-02-19T03:04:05.557Z,30.31
2016-02-19T03:05:05.544Z,30.89
2016-02-19T03:06:05.531Z,31.76
2016-02-19T03:07:05.503Z,32.06
2016-02-19T03:08:05.506Z,30.89
2016-02-19T03:09:05.477Z,31.18
2016-02-19T03:10:05.463Z,30.11
2016-02-19T03:11:05.451Z,30.02
2016-02-19T03:12:05.438Z,31.28
2016-02-19T03:13:05.409Z,31.28
2016-02-19T03:14:05.396Z,31.18
2016-02-19T03:15:05.383Z,31.76
2016-02-19T03:16:05.385Z,31.96
2016-02-19T03:17:05.358Z,30.69
2016-02-19T03:18:05.345Z,31.18
2016-02-19T03:19:05.316Z,30.99
2016-02-19T03:20:05.318Z,29.74
2016-02-19T03:21:05.290Z,30.91
2016-02-19T03:22:05.262Z,31.2
2016-02-19T03:23:05.248Z,30.81
2016-02-19T03:24:05.236Z,31.1
2016-02-19T03:25:05.223Z,31.29
2016-02-19T03:26:05.209Z,31.78
2016-02-19T03:27:05.198Z,31.1
2016-02-19T03:28:05.168Z,31.1
2016-02-19T03:29:05.170Z,29.74
2016-02-19T03:30:05.142Z,29.73
2016-02-19T03:31:05.130Z,30.79
2016-02-19T03:32:05.117Z,31.87
2016-02-19T03:33:05.103Z,31.87
2016-02-19T03:34:05.091Z,31.68
2016-02-19T03:35:05.078Z,30.81
2016-02-19T03:36:05.049Z,29.64
2016-02-19T03:37:05.022Z,29.55
2016-02-19T03:38:05.008Z,30.81
2016-02-19T03:39:04.995Z,31.97
2016-02-19T03:40:04.997Z,31.87
2016-02-19T03:41:04.969Z,31.87
2016-02-19T03:42:04.940Z,31.1
2016-02-19T03:43:04.958Z,30.62
2016-02-19T03:44:04.915Z,31.78
2016-02-19T03:45:04.901Z,32.17
2016-02-19T03:46:04.889Z,29.73
2016-02-19T03:47:04.860Z,29.73
2016-02-19T03:48:04.863Z,31.09
2016-02-19T03:49:04.834Z,31.86
2016-02-19T03:50:04.837Z,32.34
2016-02-19T03:51:04.809Z,32.71
2016-02-19T03:52:04.795Z,31.18
2016-02-19T03:53:04.767Z,30.58
2016-02-19T03:54:04.754Z,31.07
2016-02-19T03:55:04.756Z,32.23
2016-02-19T03:56:04.729Z,33.1
2016-02-19T03:57:04.715Z,32.62
2016-02-19T03:58:04.703Z,32.33
2016-02-19T03:59:04.673Z,32.52
2016-02-19T04:00:04.661Z,32.33
2016-02-19T04:01:04.648Z,31.94
2016-02-19T04:02:04.619Z,32.31
2016-02-19T04:03:04.622Z,31.34
2016-02-19T04:04:04.594Z,31.54
2016-02-19T04:05:04.580Z,31.73
2016-02-19T04:06:04.567Z,31.73
2016-02-19T04:07:04.555Z,32.41
2016-02-19T04:08:04.525Z,32.7
2016-02-19T04:09:04.357Z,33.09
2016-02-19T04:10:04.500Z,32.12
2016-02-19T04:11:04.487Z,32.02
2016-02-19T04:12:04.458Z,32.7
2016-02-19T04:13:04.461Z,32.21
2016-02-19T04:14:04.433Z,31.15
2016-02-19T04:15:04.419Z,31.73
2016-02-19T04:16:04.427Z,32.04
2016-02-19T04:17:04.383Z,32.33
2016-02-19T04:18:04.370Z,32.23
2016-02-19T04:19:04.342Z,31.94
2016-02-19T04:20:04.329Z,31.46
2016-02-19T04:21:04.315Z,30.58
2016-02-19T04:22:04.303Z,29.34
2016-02-19T04:23:04.290Z,30.99
2016-02-19T04:24:04.262Z,30.99
2016-02-19T04:25:04.248Z,31.96
2016-02-19T04:26:04.236Z,31.47
2016-02-19T04:27:04.222Z,32.06
2016-02-19T04:28:04.194Z,31.18
2016-02-19T04:29:04.180Z,30.51
2016-02-19T04:30:04.168Z,31.18
2016-02-19T04:31:04.155Z,29.83
2016-02-19T04:32:04.142Z,30.11
2016-02-19T04:33:04.114Z,30.79
2016-02-19T04:34:04.100Z,31.09
2016-02-19T04:35:04.088Z,31.37
2016-02-19T04:36:04.075Z,31.67
2016-02-19T04:37:04.046Z,31.18
2016-02-19T04:38:04.049Z,29.73
2016-02-19T04:39:04.020Z,30.02
2016-02-19T04:40:04.008Z,31.18
2016-02-19T04:41:03.994Z,31.47
2016-02-19T04:42:03.966Z,31.2
2016-02-19T04:43:03.953Z,31.29
2016-02-19T04:44:03.955Z,31.78
2016-02-19T04:45:03.927Z,31.1
2016-02-19T04:46:03.915Z,31.39
2016-02-19T04:47:03.885Z,30.52
2016-02-19T04:48:03.873Z,29.26
2016-02-19T04:49:03.859Z,29.74
2016-02-19T04:50:03.846Z,31.01
2016-02-19T04:51:03.834Z,31.29
2016-02-19T04:52:03.821Z,31.39
2016-02-19T04:53:03.793Z,31.86
2016-02-19T04:54:03.779Z,31.78
2016-02-19T04:55:03.766Z,31.1
2016-02-19T04:56:03.754Z,31.2
2016-02-19T04:57:03.725Z,30.81
2016-02-19T04:58:03.712Z,30.42
2016-02-19T04:59:03.699Z,30.32
2016-02-19T05:00:03.702Z,31.49
2016-02-19T05:01:03.689Z,31.78
2016-02-19T05:02:03.644Z,31.87
2016-02-19T05:03:03.648Z,30.62
2016-02-19T05:04:03.619Z,29.46
2016-02-19T05:05:03.605Z,29.94
2016-02-19T05:06:03.594Z,30.52
2016-02-19T05:07:03.564Z,31.2
2016-02-19T05:08:03.567Z,31.67
2016-02-19T05:09:03.569Z,32.07
2016-02-19T05:10:03.525Z,32.44
2016-02-19T05:11:03.513Z,31.18
2016-02-19T05:12:03.515Z,31.76
2016-02-19T05:13:03.472Z,32.34
2016-02-19T05:14:03.474Z,32.14
2016-02-19T05:15:03.632Z,30.68
2016-02-19T05:16:03.433Z,31.94
2016-02-19T05:17:03.419Z,32.91
2016-02-19T05:18:03.469Z,32.62
2016-02-19T05:19:03.378Z,33.2
2016-02-19T05:20:03.365Z,32.71
2016-02-19T05:21:03.337Z,31.25
2016-02-19T05:22:03.293Z,31.34
2016-02-19T05:23:03.280Z,32.51
2016-02-19T05:24:03.236Z,33.18
2016-02-19T05:25:03.237Z,32.6
2016-02-19T05:26:03.172Z,32.41
2016-02-19T05:27:03.169Z,32.7
2016-02-19T05:28:03.134Z,33.18
2016-02-19T05:29:03.100Z,32.31
2016-02-19T05:30:03.113Z,32.51
2016-02-19T05:31:03.066Z,33.28
2016-02-19T05:32:03.067Z,31.83
2016-02-19T05:33:03.037Z,31.15
2016-02-19T05:34:03.022Z,32.31
2016-02-19T05:35:03.007Z,33.18
2016-02-19T05:36:02.977Z,33.28
2016-02-19T05:37:02.964Z,33.86
2016-02-19T05:38:02.950Z,32.79
2016-02-19T05:39:02.921Z,32.79
2016-02-19T05:40:02.922Z,32.79
2016-02-19T05:41:02.926Z,32.31
2016-02-19T05:42:02.881Z,31.16
2016-02-19T05:43:02.868Z,30.58
2016-02-19T05:44:02.840Z,30.78
2016-02-19T05:45:02.827Z,31.84
2016-02-19T05:46:02.830Z,31.84
2016-02-19T05:47:02.801Z,31.96
2016-02-19T05:48:02.788Z,31.86
2016-02-19T05:49:02.775Z,32.06
2016-02-19T05:50:02.808Z,31.09
2016-02-19T05:51:02.734Z,30.41
2016-02-19T05:52:02.721Z,30.51
2016-02-19T05:53:02.708Z,31.47
2016-02-19T05:54:02.695Z,32.06
2016-02-19T05:55:02.666Z,32.44
2016-02-19T05:56:02.669Z,32.44
2016-02-19T05:57:02.640Z,31.18
2016-02-19T05:58:02.613Z,31.57
2016-02-19T05:59:02.599Z,31.96
2016-02-19T06:00:02.663Z,31.76
2016-02-19T06:01:02.573Z,30.41
2016-02-19T06:02:02.607Z,30.89
2016-02-19T06:03:02.532Z,31.57
2016-02-19T06:04:02.519Z,31.76
2016-02-19T06:05:02.568Z,31.29
2016-02-19T06:06:02.500Z,31.78
2016-02-19T06:07:02.471Z,30.23
2016-02-19T06:08:02.458Z,29.84
2016-02-19T06:09:02.445Z,30.89
2016-02-19T06:10:02.432Z,31.29
2016-02-19T06:11:02.420Z,31.01
2016-02-19T06:12:02.422Z,31.29
2016-02-19T06:13:02.378Z,31.67
2016-02-19T06:14:02.380Z,32.17
2016-02-19T06:15:02.336Z,31.78
2016-02-19T06:16:02.339Z,31.87
2016-02-19T06:17:02.326Z,30.99
2016-02-19T06:18:02.298Z,30.51
2016-02-19T06:19:02.285Z,31.28
2016-02-19T06:20:02.271Z,31.96
2016-02-19T06:21:02.243Z,32.15
2016-02-19T06:22:02.230Z,32.06
2016-02-19T06:23:02.217Z,32.42
2016-02-19T06:24:02.188Z,32.73
2016-02-19T06:25:02.191Z,33.01
2016-02-19T06:26:02.210Z,32.33
2016-02-19T06:27:02.165Z,31.84
2016-02-19T06:28:02.137Z,31.56
2016-02-19T06:29:02.124Z,32.23
2016-02-19T06:30:02.111Z,32.14
2016-02-19T06:31:02.082Z,33.39
2016-02-19T06:32:02.085Z,33.49
2016-02-19T06:33:02.056Z,33.39
2016-02-19T06:34:02.059Z,32.23
2016-02-19T06:35:02.014Z,31.44
2016-02-19T06:36:02.003Z,32.31
2016-02-19T06:37:02.005Z,33.1
2016-02-19T06:38:01.992Z,33.09
2016-02-19T06:39:01.964Z,33.95
2016-02-19T06:40:01.935Z,33.28
2016-02-19T06:41:01.922Z,33.18
2016-02-19T06:42:01.909Z,33.86
2016-02-19T06:43:01.896Z,33.28
2016-02-19T06:46:01.091Z,32.51
2016-02-19T06:47:01.345Z,32.31
2016-02-19T06:48:01.050Z,32.79
2016-02-19T06:49:01.131Z,33.47
2016-02-19T06:50:01.040Z,33.18
2016-02-19T06:51:00.996Z,31.25
2016-02-19T06:52:00.983Z,31.83
2016-02-19T06:53:00.985Z,32.7
2016-02-19T06:54:00.942Z,33.37
2016-02-19T06:55:00.929Z,33.57
2016-02-19T06:56:00.900Z,33.28
2016-02-19T06:57:00.949Z,33.76
2016-02-19T06:58:00.874Z,32.6
2016-02-19T06:59:00.861Z,32.89
2016-02-19T07:00:00.973Z,33.37
2016-02-19T07:01:00.820Z,33.2
2016-02-19T07:02:00.823Z,30.98
2016-02-19T07:03:03.887Z,30.98
2016-02-19T07:04:00.859Z,32.23
2016-02-19T07:05:00.757Z,32.14
2016-02-19T07:06:00.885Z,32.44
2016-02-19T07:07:00.731Z,32.92
2016-02-19T07:08:00.718Z,32.44
2016-02-19T07:09:00.706Z,31.47
2016-02-19T07:10:00.739Z,32.06
2016-02-19T07:11:00.805Z,32.34
2016-02-19T07:12:00.651Z,30.89
2016-02-19T07:13:00.888Z,30.69
2016-02-19T07:14:00.641Z,31.86
2016-02-19T07:15:00.674Z,31.96
2016-02-19T07:16:00.678Z,32.44
2016-02-19T07:17:00.555Z,32.34
2016-02-19T07:18:00.541Z,33.02
2016-02-19T07:19:00.560Z,30.99
2016-02-19T07:20:00.579Z,30.6
2016-02-19T07:21:00.707Z,30.79
2016-02-19T07:22:00.506Z,31.67
2016-02-19T07:23:00.509Z,32.54
2016-02-19T07:24:00.496Z,32.06
2016-02-19T07:25:00.717Z,32.06
2016-02-19T07:26:00.642Z,32.36
2016-02-19T07:27:00.457Z,32.26
2016-02-19T07:28:00.647Z,31.01
2016-02-19T07:29:00.368Z,30.91
2016-02-19T07:30:00.356Z,30.62
2016-02-19T07:31:00.359Z,30.91
2016-02-19T07:32:00.329Z,32.15
2016-02-19T07:33:00.302Z,32.06
2016-02-19T07:34:00.288Z,32.54
2016-02-19T07:35:00.369Z,32.64
2016-02-19T07:36:00.262Z,32.34
2016-02-19T07:37:00.234Z,32.64
2016-02-19T07:38:00.393Z,32.82
2016-02-19T07:39:00.208Z,32.23
2016-02-19T07:40:00.195Z,31.36
2016-02-19T07:41:00.401Z,32.04
2016-02-19T07:42:00.247Z,33.59
2016-02-19T07:43:00.172Z,33.87
2016-02-19T07:44:00.128Z,33.29
2016-02-19T07:45:00.114Z,33.01
2016-02-19T07:46:00.102Z,33.39
2016-02-19T07:47:00.073Z,32.42
2016-02-19T07:48:00.311Z,31.84
2016-02-19T07:49:00.047Z,32.04
2016-02-19T07:50:00.268Z,32.52
2016-02-19T07:51:00.006Z,32.71
2016-02-19T07:52:00.086Z,32.51
2016-02-19T07:53:00.011Z,33.1
2016-02-19T07:54:00.014Z,33.95
2016-02-19T07:55:00.094Z,33.09
2016-02-19T07:55:59.972Z,32.7
2016-02-19T07:57:00.132Z,33.95
2016-02-19T07:57:59.947Z,32.31
2016-02-19T07:58:59.996Z,32.12
2016-02-19T07:59:59.921Z,32.12
2016-02-19T08:00:59.970Z,32.7
2016-02-19T08:01:59.942Z,33.37
2016-02-19T08:03:00.023Z,33.95
2016-02-19T08:03:59.993Z,33.67
2016-02-19T08:04:59.997Z,31.73
2016-02-19T08:06:00.036Z,31.83
2016-02-19T08:07:00.007Z,32.79
2016-02-19T08:07:59.994Z,33.86
2016-02-19T08:08:59.903Z,33.28
2016-02-19T08:09:59.889Z,33.37
2016-02-19T08:10:59.877Z,33.47
2016-02-19T08:11:59.864Z,33.37
2016-02-19T08:12:59.883Z,32.7
2016-02-19T08:13:59.838Z,33.47
2016-02-19T08:14:59.872Z,33.95
2016-02-19T08:15:59.813Z,31.83
2016-02-19T08:16:59.816Z,32.02
2016-02-19T08:17:59.755Z,32.41
2016-02-19T08:18:59.773Z,32.79
2016-02-19T08:19:59.730Z,32.71
2016-02-19T08:20:59.779Z,32.62
2016-02-19T08:21:59.719Z,32.62
2016-02-19T08:22:59.691Z,32.23
2016-02-19T08:23:59.646Z,32.42
2016-02-19T08:24:59.618Z,32.23
2016-02-19T08:25:59.652Z,32.24
2016-02-19T08:26:59.638Z,30.69
2016-02-19T08:27:59.610Z,30.89
2016-02-19T08:28:59.456Z,31.28
2016-02-19T08:29:59.585Z,32.44
2016-02-19T08:30:59.478Z,32.34
2016-02-19T08:31:59.574Z,32.54
2016-02-19T08:32:59.499Z,31.18
2016-02-19T08:33:59.548Z,30.51
2016-02-19T08:35:59.492Z,31.67
2016-02-19T08:37:02.463Z,31.96
2016-02-19T08:37:59.450Z,32.24
2016-02-19T08:38:59.374Z,32.34
2016-02-19T08:39:59.455Z,32.44
2016-02-19T08:40:59.426Z,32.06
2016-02-19T08:41:59.413Z,32.24
2016-02-19T08:42:59.386Z,32.34
2016-02-19T08:43:59.372Z,31.09
2016-02-19T08:45:02.391Z,30.79
2016-02-19T08:45:59.377Z,31.18
2016-02-19T08:46:59.692Z,31.86
2016-02-19T08:47:59.524Z,32.24
2016-02-19T08:48:59.323Z,32.07
2016-02-19T08:49:59.622Z,32.07
2016-02-19T08:50:59.266Z,30.81
2016-02-19T08:51:59.284Z,30.62
2016-02-19T08:52:59.241Z,31.28
2016-02-19T08:53:59.211Z,31.86
2016-02-19T08:54:59.214Z,32.24
2016-02-19T08:55:59.263Z,32.82
2016-02-19T08:58:03.676Z,32.52
2016-02-19T08:59:09.678Z,33.1
2016-02-19T09:00:00.837Z,33.39
2016-02-19T09:01:04.559Z,32.33
2016-02-19T09:02:00.623Z,32.62
2016-02-19T09:03:00.579Z,32.42
2016-02-19T09:04:03.582Z,32.14
2016-02-19T09:05:00.554Z,33.01
2016-02-19T09:06:00.775Z,33.39
2016-02-19T09:07:03.528Z,33.76
2016-02-19T09:08:00.531Z,33.37
2016-02-19T09:09:00.517Z,32.99
2016-02-19T09:10:00.458Z,33.47
2016-02-19T09:11:00.632Z,33.37
2016-02-19T09:12:00.464Z,32.31
2016-02-19T09:13:00.450Z,33.37
2016-02-19T09:14:03.640Z,32.41
2016-02-19T09:15:03.392Z,32.21
2016-02-19T09:16:09.599Z,33.47
2016-02-19T09:17:00.366Z,33.37
2016-02-19T09:18:00.339Z,33.28
2016-02-19T09:19:00.357Z,33.09
2016-02-19T09:20:00.499Z,33.86
2016-02-19T09:21:00.268Z,33.86
2016-02-19T09:22:00.271Z,32.12
2016-02-19T09:23:00.258Z,32.41
2016-02-19T09:24:03.246Z,32.7
2016-02-19T09:25:00.201Z,33.47
2016-02-19T09:26:00.422Z,33.57
2016-02-19T09:27:00.143Z,33.37
2016-02-19T09:28:00.194Z,32.7
2016-02-19T09:29:00.149Z,33.28
2016-02-19T09:30:00.073Z,33.2
2016-02-19T09:31:00.435Z,32.14
2016-02-19T09:32:00.126Z,32.52
2016-02-19T09:32:59.988Z,32.71
2016-02-19T09:34:00.351Z,31.16
2016-02-19T09:35:00.056Z,31.65
2016-02-19T09:35:59.981Z,31.74
2016-02-19T09:36:59.858Z,32.23
2016-02-19T09:38:00.299Z,32.44
2016-02-19T09:39:00.598Z,32.54
2016-02-19T09:39:59.975Z,32.92
2016-02-19T09:40:59.931Z,31.47
2016-02-19T09:41:59.919Z,30.51
2016-02-19T09:42:59.889Z,30.79
2016-02-19T09:43:59.971Z,31.76
2016-02-19T09:44:59.723Z,32.44
2016-02-19T09:45:59.850Z,32.34
2016-02-19T09:46:59.713Z,32.82
2016-02-19T09:47:59.591Z,33.02
2016-02-19T09:48:59.578Z,31.96
2016-02-19T09:49:59.565Z,32.44
2016-02-19T09:50:59.552Z,32.54
2016-02-19T09:51:59.524Z,31.28
2016-02-19T09:52:59.682Z,30.89
2016-02-19T09:53:59.514Z,31.09
2016-02-19T09:54:59.500Z,31.29
2016-02-19T09:55:59.456Z,31.97
2016-02-19T09:56:59.474Z,31.87
2016-02-19T09:57:59.430Z,31.97
2016-02-19T09:58:59.402Z,32.07
2016-02-19T09:59:59.388Z,30.81
2016-02-19T10:00:59.220Z,31.2
2016-02-19T10:01:59.363Z,32.15
2016-02-19T10:02:59.365Z,32.24
2016-02-19T10:03:59.337Z,32.54
2016-02-19T10:04:59.387Z,32.24
2016-02-19T10:05:59.295Z,32.24
2016-02-19T10:06:59.283Z,32.64
2016-02-19T10:07:59.270Z,33.69
2016-02-19T10:08:59.273Z,31.96
2016-02-19T10:09:59.228Z,33.01
2016-02-19T10:10:59.231Z,32.81
2016-02-19T10:11:59.295Z,31.74
2016-02-19T10:12:59.190Z,31.84
2016-02-19T10:13:59.192Z,32.33
2016-02-19T10:14:59.148Z,32.91
2016-02-19T10:15:59.150Z,32.62
2016-02-19T10:16:59.138Z,33.1
2016-02-19T10:17:59.172Z,33.29
2016-02-19T10:18:59.080Z,33.01
2016-02-19T10:19:59.067Z,33.39
2016-02-19T10:20:59.055Z,34.07
2016-02-19T10:21:59.041Z,31.07
2016-02-19T10:22:59.030Z,33.09
2016-02-19T10:23:59.016Z,33.18
2016-02-19T10:24:59.002Z,32.51
2016-02-19T10:25:58.975Z,32.7
2016-02-19T10:26:58.961Z,33.09
2016-02-19T10:27:58.933Z,33.76
2016-02-19T10:28:58.920Z,32.31
2016-02-19T10:29:58.907Z,32.51
2016-02-19T10:30:59.004Z,33.28
2016-02-19T10:31:58.866Z,33.86
2016-02-19T10:32:58.853Z,31.05
2016-02-19T10:33:58.840Z,32.51
2016-02-19T10:34:58.920Z,33.47
2016-02-19T10:35:58.814Z,33.67
2016-02-19T10:36:58.973Z,32.12
2016-02-19T10:37:59.365Z,32.6
2016-02-19T10:38:59.228Z,33.67
2016-02-19T10:39:58.871Z,33.67
2016-02-19T10:40:59.014Z,33.18
2016-02-19T10:41:58.190Z,33.67
2016-02-19T10:42:58.864Z,33.95
2016-02-19T10:43:58.928Z,32.31
2016-02-19T10:44:58.760Z,33.47
2016-02-19T10:45:58.841Z,32.41
2016-02-19T10:46:58.875Z,31.63
2016-02-19T10:47:58.830Z,32.14
2016-02-19T10:48:58.864Z,32.33
2016-02-19T10:49:58.852Z,32.06
2016-02-19T10:50:58.745Z,32.06
2016-02-19T10:51:58.842Z,31.09
2016-02-19T10:52:58.719Z,31.18
2016-02-19T10:53:58.784Z,31.37
2016-02-19T10:54:58.725Z,31.09
2016-02-19T10:55:58.727Z,31.09
2016-02-19T10:56:58.713Z,31.18
2016-02-19T10:57:58.623Z,31.37
2016-02-19T10:58:58.579Z,31.47
2016-02-19T10:59:58.410Z,31.39
2016-02-19T11:00:58.538Z,31.29
2016-02-19T11:01:58.524Z,31.49
2016-02-19T11:02:58.542Z,31.01
2016-02-19T11:03:58.515Z,31.39
2016-02-19T11:04:58.157Z,32.07
2016-02-19T11:05:58.300Z,30.81
2016-02-19T11:06:58.273Z,30.31
2016-02-19T11:07:58.368Z,30.79
2016-02-19T11:08:58.262Z,31.18
2016-02-19T11:09:58.234Z,31.39
2016-02-19T11:10:58.361Z,31.49
2016-02-19T11:11:58.223Z,31.2
2016-02-19T11:12:58.195Z,31.29
2016-02-19T11:13:58.181Z,31.01
2016-02-19T11:14:58.137Z,31.49
2016-02-19T11:15:58.125Z,30.32
2016-02-19T11:16:58.300Z,29.84
2016-02-19T11:17:58.395Z,30.13
2016-02-19T11:18:58.383Z,30.91
2016-02-19T11:19:58.323Z,31.1
2016-02-19T11:20:58.310Z,31.1
2016-02-19T11:21:58.313Z,31.49
2016-02-19T11:23:01.299Z,31.1
2016-02-19T11:24:01.286Z,31.39
2016-02-19T11:25:01.196Z,31.1
2016-02-19T11:25:58.214Z,31.39
2016-02-19T11:26:58.216Z,30.52
2016-02-19T11:28:01.250Z,30.52
2016-02-19T11:28:59.082Z,31.01
2016-02-19T11:29:58.146Z,30.91
2016-02-19T11:30:58.068Z,30.91
2016-02-19T11:31:58.118Z,31.2
2016-02-19T11:32:58.058Z,31.68
2016-02-19T11:33:58.013Z,32.06
2016-02-19T11:34:58.048Z,30.11
2016-02-19T11:35:57.988Z,30.41
2016-02-19T11:36:57.896Z,31.18
2016-02-19T11:37:58.010Z,31.86
2016-02-19T11:38:57.996Z,31.76
2016-02-19T11:39:57.889Z,32.24
2016-02-19T11:40:57.971Z,31.96
2016-02-19T11:41:57.926Z,31.96
2016-02-19T11:42:57.897Z,30.89
2016-02-19T11:43:57.822Z,31.76
2016-02-19T11:44:58.168Z,32.04
2016-02-19T11:45:58.045Z,32.52
2016-02-19T11:46:57.815Z,30.39
2016-02-19T11:47:57.770Z,31.36
2016-02-19T11:48:57.757Z,32.42
2016-02-19T11:49:57.792Z,32.52
2016-02-19T11:50:57.809Z,31.65
2016-02-19T11:51:57.749Z,32.23
2016-02-19T11:52:57.893Z,32.7
2016-02-19T11:54:00.711Z,32.21
2016-02-19T11:54:57.680Z,32.51
2016-02-19T11:55:57.605Z,32.41
2016-02-19T11:56:57.607Z,32.02
2016-02-19T11:57:57.657Z,32.21
2016-02-19T11:58:57.535Z,32.51
2016-02-19T11:59:57.552Z,32.71
2016-02-19T12:00:57.555Z,31.36
2016-02-19T12:01:57.574Z,32.23
2016-02-19T12:02:57.560Z,32.21
2016-02-19T12:03:57.486Z,32.71
2016-02-19T12:04:57.441Z,31.93
2016-02-19T12:05:57.366Z,32.33
2016-02-19T12:06:57.322Z,33.01
2016-02-19T12:07:57.434Z,32.04
2016-02-19T12:08:57.374Z,30.78
2016-02-19T12:09:57.173Z,32.04
2016-02-19T12:10:57.192Z,32.52
2016-02-19T12:11:57.162Z,32.52
2016-02-19T12:12:57.291Z,32.52
2016-02-19T12:13:57.168Z,32.14
2016-02-19T12:14:57.280Z,32.24
2016-02-19T12:15:57.221Z,31.96
2016-02-19T12:16:57.286Z,32.24
2016-02-19T12:17:57.553Z,30.79
2016-02-19T12:18:57.229Z,31.28
2016-02-19T12:19:57.169Z,31.09
2016-02-19T12:20:57.203Z,31.37
2016-02-19T12:21:57.190Z,31.86
2016-02-19T12:22:57.177Z,31.57
2016-02-19T12:23:57.086Z,31.96
2016-02-19T12:24:57.104Z,32.15
2016-02-19T12:25:57.075Z,30.91
2016-02-19T12:26:57.171Z,31.57
2016-02-19T12:28:00.115Z,31.67
2016-02-19T12:28:57.068Z,32.15
2016-02-19T12:29:56.946Z,31.76
2016-02-19T12:30:56.980Z,30.41
2016-02-19T12:31:56.935Z,31.37
2016-02-19T12:32:56.876Z,31.78
2016-02-19T12:33:56.863Z,31.67
2016-02-19T12:34:56.990Z,31.2
2016-02-19T12:35:56.868Z,31.29
2016-02-19T12:36:56.777Z,31.29
2016-02-19T12:37:56.890Z,31.59
2016-02-19T12:38:56.907Z,31.87
2016-02-19T12:39:56.910Z,30.42
2016-02-19T12:40:56.819Z,30.52
2016-02-19T12:41:56.884Z,30.91
2016-02-19T12:42:56.745Z,31.29
2016-02-19T12:43:56.640Z,31.39
2016-02-19T12:44:56.689Z,31.01
2016-02-19T12:45:56.786Z,31.97
2016-02-19T12:46:56.664Z,30.71
2016-02-19T12:47:56.697Z,30.91
2016-02-19T12:48:56.622Z,31.39
2016-02-19T12:49:56.609Z,31.68
2016-02-19T12:50:56.595Z,31.37
2016-02-19T12:51:56.630Z,30.31
2016-02-19T12:52:56.586Z,31.47
2016-02-19T12:53:56.666Z,31.96
2016-02-19T12:54:56.623Z,32.24
2016-02-19T12:55:56.438Z,30.79
2016-02-19T12:56:56.486Z,31.76
2016-02-19T12:57:56.552Z,32.24